Time;durP1;ratioP1;P1;durP2;ratioP2;P2;SDS_P1;SDS_P2;PMS_P1;PMS_P2;Temp;Humidity;BMP_temperature;BMP_pressure;BME280_temperature;BME280_humidity;BME280_pressure;Samples;Min_cycle;Max_cycle;Signal;HPM_P1;HPM_P2
2022/11/22 00:00:41;;;;;;;8.87;5.47;;;4.50;99.90;;;;;;5074044;28;20482;-66
2022/11/22 00:03:08;;;;;;;15.10;5.50;;;4.50;99.90;;;;;;5073617;28;20506;-66
2022/11/22 00:05:35;;;;;;;12.73;4.93;;;4.50;99.90;;;;;;5073290;28;20454;-66
2022/11/22 00:08:03;;;;;;;10.30;5.50;;;4.50;99.90;;;;;;5073817;28;20955;-66
2022/11/22 00:10:30;;;;;;;8.37;5.43;;;4.50;99.90;;;;;;5073050;28;20445;-66
2022/11/22 00:12:57;;;;;;;18.60;6.37;;;4.50;99.90;;;;;;5073581;28;20470;-67
2022/11/22 00:15:23;;;;;;;11.73;5.90;;;4.50;99.90;;;;;;5073447;28;20533;-67
2022/11/22 00:17:50;;;;;;;14.17;6.57;;;4.50;99.90;;;;;;5073745;28;20458;-66
2022/11/22 00:20:17;;;;;;;8.00;5.83;;;4.50;99.90;;;;;;5072712;28;20999;-67
2022/11/22 00:22:44;;;;;;;14.70;6.00;;;4.50;99.90;;;;;;5073655;28;20447;-66
2022/11/22 00:25:13;;;;;;;8.73;5.93;;;4.50;99.90;;;;;;5073548;28;20447;-66
2022/11/22 00:27:40;;;;;;;15.40;6.27;;;4.50;99.90;;;;;;5073529;28;20444;-66
2022/11/22 00:30:07;;;;;;;10.37;6.60;;;4.50;99.90;;;;;;5073192;28;20448;-66
2022/11/22 00:32:34;;;;;;;15.30;6.70;;;4.50;99.90;;;;;;5072372;28;20961;-66
2022/11/22 00:35:01;;;;;;;15.87;6.07;;;4.50;99.90;;;;;;5073598;28;20476;-66
2022/11/22 00:37:27;;;;;;;16.50;7.00;;;4.50;99.90;;;;;;5073062;28;20459;-67
2022/11/22 00:39:54;;;;;;;16.10;7.13;;;4.50;99.90;;;;;;5073658;28;20476;-66
2022/11/22 00:42:22;;;;;;;13.57;6.53;;;4.50;99.90;;;;;;5072893;28;20466;-67
2022/11/22 00:44:49;;;;;;;15.60;6.87;;;4.60;99.90;;;;;;5073072;28;20528;-66
2022/11/22 00:47:15;;;;;;;16.83;6.77;;;4.60;99.90;;;;;;5073108;28;20459;-66
2022/11/22 00:49:42;;;;;;;13.80;6.97;;;4.60;99.90;;;;;;5073114;28;20513;-67
2022/11/22 00:52:09;;;;;;;12.83;7.03;;;4.60;99.90;;;;;;5072892;28;20448;-67
2022/11/22 00:54:35;;;;;;;18.43;7.10;;;4.60;99.90;;;;;;5073002;28;20476;-66
2022/11/22 00:57:02;;;;;;;10.40;6.33;;;4.60;99.90;;;;;;5073278;28;20456;-67
2022/11/22 00:59:30;;;;;;;10.83;6.77;;;4.60;99.90;;;;;;5072128;28;20457;-67
2022/11/22 01:01:57;;;;;;;18.83;7.23;;;4.60;99.90;;;;;;5072961;28;20458;-67
2022/11/22 01:04:24;;;;;;;14.50;6.30;;;4.60;99.90;;;;;;5071333;28;20475;-66
2022/11/22 01:06:51;;;;;;;17.10;7.40;;;4.60;99.90;;;;;;5071468;28;20882;-67
2022/11/22 01:09:19;;;;;;;11.97;6.83;;;4.50;99.90;;;;;;5072168;28;20454;-67
2022/11/22 01:11:46;;;;;;;16.00;7.43;;;4.50;99.90;;;;;;5072916;28;20455;-67
2022/11/22 01:14:13;;;;;;;23.47;7.87;;;4.60;99.90;;;;;;5072344;28;20476;-67
2022/11/22 01:16:42;;;;;;;15.47;7.27;;;4.60;99.90;;;;;;5072549;28;20948;-67
2022/11/22 01:19:09;;;;;;;12.43;7.87;;;4.60;99.90;;;;;;5072261;28;20968;-67
2022/11/22 01:21:36;;;;;;;12.93;7.17;;;4.60;99.90;;;;;;5072030;28;20535;-67
2022/11/22 01:24:03;;;;;;;20.53;7.90;;;4.60;99.90;;;;;;5072042;28;20888;-67
2022/11/22 01:26:29;;;;;;;11.50;7.17;;;4.60;99.90;;;;;;5071863;28;20452;-67
2022/11/22 01:28:56;;;;;;;16.37;7.37;;;4.60;99.90;;;;;;5072572;28;20513;-67
2022/11/22 01:31:23;;;;;;;14.53;7.27;;;4.60;99.90;;;;;;5071885;28;20951;-67
2022/11/22 01:33:51;;;;;;;14.47;7.47;;;4.60;99.90;;;;;;5072191;28;20994;-67
2022/11/22 01:36:17;;;;;;;17.10;7.57;;;4.60;99.90;;;;;;5071342;28;20452;-67
2022/11/22 01:38:44;;;;;;;15.93;7.57;;;4.70;99.90;;;;;;5072010;28;20960;-67
2022/11/22 01:41:11;;;;;;;15.63;7.20;;;4.70;99.90;;;;;;5071965;28;20519;-67
2022/11/22 01:43:38;;;;;;;13.60;7.57;;;4.70;99.90;;;;;;5071904;28;20467;-67
2022/11/22 01:46:09;;;;;;;16.50;8.47;;;4.70;99.90;;;;;;5071568;28;20451;-67
2022/11/22 01:48:46;;;;;;;12.13;6.67;;;4.70;99.90;;;;;;5072016;28;20514;-67
2022/11/22 01:51:24;;;;;;;10.23;6.73;;;4.70;99.90;;;;;;5071742;28;21117;-67
2022/11/22 01:53:52;;;;;;;12.20;7.00;;;4.70;99.90;;;;;;5066611;28;20522;-67
2022/11/22 01:56:21;;;;;;;10.53;6.40;;;4.70;99.90;;;;;;5071292;28;20982;-67
2022/11/22 01:58:53;;;;;;;19.00;7.73;;;4.70;99.90;;;;;;5071364;28;20499;-67
2022/11/22 02:01:20;;;;;;;12.97;7.40;;;4.70;99.90;;;;;;5071168;28;20843;-67
2022/11/22 02:03:49;;;;;;;8.37;6.73;;;4.70;99.90;;;;;;5071174;28;21069;-67
2022/11/22 02:06:18;;;;;;;15.80;7.40;;;4.80;99.90;;;;;;5071073;28;20462;-67
2022/11/22 02:08:51;;;;;;;13.93;6.70;;;4.70;99.90;;;;;;5065392;28;20502;-67
2022/11/22 02:11:20;;;;;;;14.87;7.87;;;4.80;99.90;;;;;;5070471;28;20456;-67
2022/11/22 02:13:47;;;;;;;8.90;6.70;;;4.70;99.90;;;;;;5071183;28;20466;-67
2022/11/22 02:16:14;;;;;;;13.33;7.17;;;4.70;99.90;;;;;;5071269;28;20453;-70
2022/11/22 02:18:41;;;;;;;9.13;6.53;;;4.70;99.90;;;;;;5071518;28;20850;-70
2022/11/22 02:21:08;;;;;;;11.93;6.70;;;4.70;99.90;;;;;;5071055;28;20478;-70
2022/11/22 02:23:45;;;;;;;16.27;6.43;;;4.70;99.90;;;;;;5069653;28;20556;-70
2022/11/22 02:26:14;;;;;;;13.20;8.20;;;4.70;99.90;;;;;;5070831;28;20542;-70
2022/11/22 02:28:41;;;;;;;12.40;7.33;;;4.80;99.90;;;;;;5071059;28;21009;-70
2022/11/22 02:31:08;;;;;;;15.90;7.70;;;4.80;99.90;;;;;;5071129;28;20455;-70
2022/11/22 02:33:34;;;;;;;14.53;7.03;;;4.80;99.90;;;;;;5069763;28;20470;-70
2022/11/22 02:36:01;;;;;;;10.03;6.53;;;4.80;99.90;;;;;;5071018;28;20449;-70
2022/11/22 02:38:32;;;;;;;12.60;7.20;;;4.80;99.90;;;;;;5070283;28;20448;-70
2022/11/22 02:41:02;;;;;;;11.07;5.90;;;4.80;99.90;;;;;;5070923;28;20483;-70
2022/11/22 02:43:33;;;;;;;10.30;6.27;;;4.80;99.90;;;;;;5070583;28;20473;-70
2022/11/22 02:46:04;;;;;;;9.73;6.30;;;4.80;99.90;;;;;;5071501;28;20538;-70
2022/11/22 02:48:31;;;;;;;12.17;6.73;;;4.80;99.90;;;;;;5070626;28;20893;-70
2022/11/22 02:50:57;;;;;;;12.17;6.37;;;4.80;99.90;;;;;;5070637;28;20452;-70
2022/11/22 02:53:24;;;;;;;11.43;6.13;;;4.80;99.90;;;;;;5070320;28;20468;-70
2022/11/22 02:55:51;;;;;;;11.87;7.03;;;4.80;99.90;;;;;;5070521;28;20833;-70
2022/11/22 02:58:17;;;;;;;11.40;7.60;;;4.80;99.90;;;;;;5070551;28;20460;-70
2022/11/22 03:00:45;;;;;;;9.60;6.90;;;4.80;99.90;;;;;;5070806;28;20844;-70
2022/11/22 03:03:12;;;;;;;13.77;7.37;;;4.80;99.90;;;;;;5070044;28;20464;-70
2022/11/22 03:05:39;;;;;;;9.40;6.77;;;4.80;99.90;;;;;;5070355;28;20458;-70
2022/11/22 03:08:05;;;;;;;15.67;7.77;;;4.70;99.90;;;;;;5070674;28;20452;-70
2022/11/22 03:10:32;;;;;;;10.73;6.33;;;4.70;99.90;;;;;;5070565;28;20450;-70
2022/11/22 03:12:59;;;;;;;13.97;7.20;;;4.70;99.90;;;;;;5070437;28;20901;-70
2022/11/22 03:15:26;;;;;;;12.70;7.53;;;4.70;99.90;;;;;;5068629;28;20476;-70
2022/11/22 03:17:58;;;;;;;13.67;7.63;;;4.70;99.90;;;;;;5071127;28;20901;-70
2022/11/22 03:20:25;;;;;;;12.67;7.70;;;4.70;99.90;;;;;;5070347;28;20497;-70
2022/11/22 03:22:52;;;;;;;15.30;8.00;;;4.70;99.90;;;;;;5072279;28;20451;-70
2022/11/22 03:25:18;;;;;;;13.73;7.00;;;4.70;99.90;;;;;;5074383;28;20450;-70
2022/11/22 03:27:45;;;;;;;10.50;7.07;;;4.70;99.90;;;;;;5075385;28;20456;-70
2022/11/22 03:30:12;;;;;;;8.80;7.30;;;4.60;99.90;;;;;;5074066;28;20460;-70
2022/11/22 03:32:39;;;;;;;11.10;7.87;;;4.60;99.90;;;;;;5074304;28;20450;-70
2022/11/22 03:35:08;;;;;;;14.90;8.67;;;4.70;99.90;;;;;;5074667;28;20454;-70
2022/11/22 03:37:35;;;;;;;19.13;9.07;;;4.70;99.90;;;;;;5078483;28;20455;-70
2022/11/22 03:40:02;;;;;;;18.00;8.73;;;4.70;99.90;;;;;;5073975;28;20463;-70
2022/11/22 03:42:28;;;;;;;15.10;9.40;;;4.70;99.90;;;;;;5073844;28;20542;-70
2022/11/22 03:44:55;;;;;;;16.93;9.00;;;4.60;99.90;;;;;;5074325;28;20483;-70
2022/11/22 03:47:22;;;;;;;16.03;9.47;;;4.60;99.90;;;;;;5073703;28;20455;-70
2022/11/22 03:49:48;;;;;;;15.07;9.70;;;4.60;99.90;;;;;;5074255;28;20453;-70
2022/11/22 03:52:16;;;;;;;14.30;9.70;;;4.60;99.90;;;;;;5074083;28;20444;-70
2022/11/22 03:54:43;;;;;;;17.40;10.20;;;4.60;99.90;;;;;;5070899;28;20479;-70
2022/11/22 03:57:10;;;;;;;15.97;9.80;;;4.60;99.90;;;;;;5073611;28;20447;-70
2022/11/22 03:59:36;;;;;;;17.40;10.27;;;4.60;99.90;;;;;;5074165;28;20459;-70
2022/11/22 04:02:03;;;;;;;14.97;9.27;;;4.60;99.90;;;;;;5074097;28;20483;-70
2022/11/22 04:04:30;;;;;;;14.70;9.50;;;4.60;99.90;;;;;;5073732;28;20476;-70
2022/11/22 04:06:56;;;;;;;20.43;11.10;;;4.60;99.90;;;;;;5073763;28;20452;-70
2022/11/22 04:09:24;;;;;;;20.63;11.47;;;4.70;99.90;;;;;;5073290;28;20482;-70
2022/11/22 04:11:51;;;;;;;19.60;10.80;;;4.70;99.90;;;;;;5073824;28;20459;-70
2022/11/22 04:17:04;;;;;;;25.27;12.40;;;4.80;99.90;;;;;;5043795;28;20443;-70
2022/11/22 04:19:31;;;;;;;21.60;10.90;;;4.70;99.90;;;;;;5073734;28;20452;-70
2022/11/22 04:21:56;;;;;;;16.23;10.73;;;4.70;99.90;;;;;;5073678;28;20843;-70
2022/11/22 04:27:05;;;;;;;28.70;11.80;;;4.70;99.90;;;;;;5039861;28;20197;-70
2022/11/22 04:29:32;;;;;;;21.27;12.20;;;4.70;99.90;;;;;;5072357;28;20449;-70
2022/11/22 04:34:43;;;;;;;25.60;12.80;;;4.70;99.90;;;;;;5072425;28;20978;-70
2022/11/22 04:37:09;;;;;;;20.10;12.17;;;4.70;99.90;;;;;;5076768;28;20470;-70
2022/11/22 04:39:37;;;;;;;20.57;11.90;;;4.70;99.90;;;;;;5066008;28;20445;-70
2022/11/22 04:44:49;;;;;;;22.00;12.20;;;4.70;99.90;;;;;;5072892;28;20489;-70
2022/11/22 04:47:57;;;;;;;26.47;13.40;;;4.60;99.90;;;;;;5073216;28;20448;-70
2022/11/22 04:52:52;;;;;;;21.80;12.50;;;4.60;99.90;;;;;;5069624;28;20443;-70
2022/11/22 04:52:53;;;;;;;24.27;12.50;;;4.60;99.90;;;;;;5072697;28;20498;-71
2022/11/22 04:55:22;;;;;;;31.50;13.30;;;4.60;99.90;;;;;;5072629;28;20458;-70
2022/11/22 04:57:48;;;;;;;26.53;12.57;;;4.60;99.90;;;;;;5072945;28;20456;-70
2022/11/22 05:00:16;;;;;;;26.23;12.10;;;4.60;99.90;;;;;;5072581;28;20445;-70
2022/11/22 05:02:43;;;;;;;32.00;14.60;;;4.60;99.90;;;;;;5066017;28;20486;-71
2022/11/22 05:05:11;;;;;;;37.77;15.20;;;4.50;99.90;;;;;;5072222;28;20454;-70
2022/11/22 05:07:37;;;;;;;25.17;13.43;;;4.50;99.90;;;;;;5072824;28;20462;-71
2022/11/22 05:10:04;;;;;;;27.13;13.47;;;4.50;99.90;;;;;;5071803;28;20452;-70
2022/11/22 05:12:32;;;;;;;25.60;12.77;;;4.50;99.90;;;;;;5072071;28;20448;-71
2022/11/22 05:14:59;;;;;;;25.07;13.27;;;4.50;99.90;;;;;;5072745;28;20521;-71
2022/11/22 05:17:26;;;;;;;31.17;14.27;;;4.50;99.90;;;;;;5071994;28;20456;-71
2022/11/22 05:19:52;;;;;;;33.87;14.10;;;4.50;99.90;;;;;;5072475;28;20457;-71
2022/11/22 05:23:52;;;;;;;22.97;13.47;;;4.50;99.90;;;;;;5072048;28;20537;-71
2022/11/22 05:25:06;;;;;;;32.33;14.20;;;4.50;99.90;;;;;;5071375;28;20440;-70
2022/11/22 05:27:34;;;;;;;29.00;13.30;;;4.50;99.90;;;;;;5072113;28;20520;-70
2022/11/22 05:30:01;;;;;;;34.23;13.70;;;4.40;99.90;;;;;;5072287;28;20449;-70
2022/11/22 05:32:29;;;;;;;31.93;14.93;;;4.50;99.90;;;;;;5071537;28;20448;-71
2022/11/22 05:34:56;;;;;;;35.40;14.60;;;4.50;99.90;;;;;;5072204;28;20471;-71
2022/11/22 05:37:23;;;;;;;28.90;14.50;;;4.50;99.90;;;;;;5075179;28;20848;-70
2022/11/22 05:39:50;;;;;;;33.73;15.67;;;4.50;99.90;;;;;;5071571;28;20447;-71
2022/11/22 05:42:16;;;;;;;29.20;16.00;;;4.50;99.90;;;;;;5071521;28;20824;-70
2022/11/22 05:44:44;;;;;;;32.00;15.00;;;4.50;99.90;;;;;;5071754;28;20468;-70
2022/11/22 05:47:11;;;;;;;33.60;15.20;;;4.50;99.90;;;;;;5071248;28;20459;-71
2022/11/22 05:49:38;;;;;;;35.50;15.53;;;4.50;99.90;;;;;;5072061;28;20449;-71
2022/11/22 05:52:05;;;;;;;34.70;15.60;;;4.50;99.90;;;;;;5071346;28;20455;-70
2022/11/22 05:54:31;;;;;;;29.77;15.60;;;4.50;99.90;;;;;;5070845;28;20490;-71
2022/11/22 05:56:58;;;;;;;30.70;14.50;;;4.50;99.90;;;;;;5071747;28;20473;-72
2022/11/22 05:59:25;;;;;;;34.80;14.57;;;4.50;99.90;;;;;;5071356;28;20454;-71
2022/11/22 06:01:53;;;;;;;27.00;14.13;;;4.50;99.90;;;;;;5070993;28;20506;-70
2022/11/22 06:04:19;;;;;;;33.93;14.17;;;4.40;99.90;;;;;;5070683;28;20467;-70
2022/11/22 06:06:46;;;;;;;34.97;14.30;;;4.40;99.90;;;;;;5069934;28;20452;-71
2022/11/22 06:09:13;;;;;;;33.57;14.77;;;4.30;99.90;;;;;;5070664;28;20455;-71
2022/11/22 06:11:40;;;;;;;36.70;15.03;;;4.30;99.90;;;;;;5071569;28;20466;-70
2022/11/22 06:14:08;;;;;;;30.20;14.93;;;4.30;99.90;;;;;;5071090;28;20487;-71
2022/11/22 06:16:35;;;;;;;28.20;15.50;;;4.30;99.90;;;;;;5069938;28;20509;-71
2022/11/22 06:19:03;;;;;;;31.07;15.60;;;4.30;99.90;;;;;;5064790;28;20462;-71
2022/11/22 06:21:30;;;;;;;35.93;15.50;;;4.20;99.90;;;;;;5070465;28;20487;-70
2022/11/22 06:23:57;;;;;;;38.23;15.80;;;4.20;99.90;;;;;;5070184;28;20478;-71
2022/11/22 06:26:24;;;;;;;29.70;15.17;;;4.20;99.90;;;;;;5070901;28;20448;-71
2022/11/22 06:28:51;;;;;;;31.60;14.57;;;4.20;99.90;;;;;;5071036;28;20448;-71
2022/11/22 06:31:20;;;;;;;32.77;16.93;;;4.20;99.90;;;;;;5070481;28;20466;-72
2022/11/22 06:33:47;;;;;;;36.40;17.43;;;4.20;99.90;;;;;;5064745;28;20468;-72
2022/11/22 06:36:17;;;;;;;39.47;17.70;;;4.10;99.90;;;;;;5074740;28;20456;-71
2022/11/22 06:38:44;;;;;;;32.07;17.20;;;4.10;99.90;;;;;;5071056;28;20455;-72
2022/11/22 06:41:12;;;;;;;33.87;16.27;;;4.10;99.90;;;;;;5070632;28;20506;-72
2022/11/22 06:43:40;;;;;;;31.90;16.27;;;4.10;99.90;;;;;;5070388;28;20876;-72
2022/11/22 06:46:07;;;;;;;33.97;15.80;;;4.10;99.90;;;;;;5074515;28;20451;-72
2022/11/22 06:48:36;;;;;;;35.43;16.53;;;4.10;99.90;;;;;;5070815;28;20455;-73
2022/11/22 06:51:04;;;;;;;31.93;15.67;;;4.10;99.90;;;;;;5069901;28;20451;-72
2022/11/22 06:53:35;;;;;;;34.40;16.00;;;4.00;99.90;;;;;;5069779;28;20468;-71
2022/11/22 06:56:02;;;;;;;37.35;18.23;;;4.00;99.90;;;;;;5069716;28;20445;-71
2022/11/22 06:58:29;;;;;;;34.53;17.50;;;4.00;99.90;;;;;;5070337;28;20247;-71
2022/11/22 07:01:00;;;;;;;40.97;20.80;;;4.00;99.90;;;;;;5066007;28;20457;-70
2022/11/22 07:03:27;;;;;;;46.97;19.27;;;4.10;99.90;;;;;;5063980;28;20471;-71
2022/11/22 07:05:54;;;;;;;34.83;18.93;;;4.20;99.90;;;;;;5065406;28;20455;-71
2022/11/22 07:08:21;;;;;;;38.30;19.23;;;4.20;99.90;;;;;;5062474;28;20459;-70
2022/11/22 07:10:50;;;;;;;40.50;19.80;;;4.30;99.90;;;;;;5060626;28;20558;-70
2022/11/22 07:13:17;;;;;;;43.13;18.67;;;4.40;99.90;;;;;;5063667;28;21336;-71
2022/11/22 07:15:44;;;;;;;42.33;20.07;;;4.50;99.90;;;;;;5065391;28;20450;-71
2022/11/22 07:18:11;;;;;;;33.70;17.37;;;4.50;99.90;;;;;;5065131;28;20455;-70
2022/11/22 07:20:38;;;;;;;31.30;17.13;;;4.50;99.90;;;;;;5066567;28;20456;-70
2022/11/22 07:23:05;;;;;;;26.63;15.40;;;4.50;99.90;;;;;;5063511;28;20510;-70
2022/11/22 07:25:31;;;;;;;28.60;15.10;;;4.50;99.90;;;;;;5062983;28;20456;-72
2022/11/22 07:27:59;;;;;;;38.77;16.80;;;4.50;99.90;;;;;;5065747;28;20449;-70
2022/11/22 07:30:26;;;;;;;36.07;16.70;;;4.50;99.90;;;;;;5065911;28;20517;-70
2022/11/22 07:32:53;;;;;;;29.23;16.53;;;4.50;99.90;;;;;;5066523;28;20432;-70
2022/11/22 07:35:19;;;;;;;31.53;15.23;;;4.50;99.90;;;;;;5065878;28;21006;-70
2022/11/22 07:37:47;;;;;;;29.90;16.07;;;4.50;99.90;;;;;;5066645;28;20825;-70
2022/11/22 07:40:13;;;;;;;35.77;15.90;;;4.50;99.90;;;;;;5066267;28;20452;-70
2022/11/22 07:42:40;;;;;;;29.43;16.53;;;4.40;99.90;;;;;;5067117;28;20482;-70
2022/11/22 07:45:09;;;;;;;29.10;16.50;;;4.50;99.90;;;;;;5066182;28;20459;-70
2022/11/22 07:47:36;;;;;;;30.27;16.30;;;4.60;99.90;;;;;;5067241;28;21160;-71
2022/11/22 07:50:03;;;;;;;29.93;15.83;;;4.60;99.90;;;;;;5067018;28;20446;-71
2022/11/22 07:52:29;;;;;;;33.17;15.93;;;4.60;99.90;;;;;;5066584;28;20446;-72
2022/11/22 07:54:56;;;;;;;34.30;17.00;;;4.70;99.90;;;;;;5066314;28;20489;-71
2022/11/22 07:57:23;;;;;;;29.33;15.97;;;4.70;99.90;;;;;;5067170;28;20444;-71
2022/11/22 07:59:49;;;;;;;33.93;15.90;;;4.70;99.90;;;;;;5066240;28;20449;-71
2022/11/22 08:02:17;;;;;;;28.90;15.17;;;4.70;99.90;;;;;;5066086;28;20479;-70
2022/11/22 08:04:44;;;;;;;30.43;15.27;;;4.80;99.90;;;;;;5065957;28;20467;-71
2022/11/22 08:07:11;;;;;;;24.40;14.50;;;4.90;99.90;;;;;;5066793;28;21009;-70
2022/11/22 08:09:38;;;;;;;29.40;15.23;;;5.00;99.90;;;;;;5067129;28;20463;-70
2022/11/22 08:12:05;;;;;;;24.23;15.17;;;5.20;99.90;;;;;;5069998;28;20459;-71
2022/11/22 08:14:31;;;;;;;27.30;16.30;;;5.40;99.90;;;;;;5070722;28;20479;-72
2022/11/22 08:16:58;;;;;;;25.60;14.47;;;5.60;99.90;;;;;;5069903;28;20458;-71
2022/11/22 08:19:26;;;;;;;29.83;15.37;;;5.70;99.90;;;;;;5070186;28;20449;-71
2022/11/22 08:21:53;;;;;;;27.60;14.43;;;5.70;99.90;;;;;;5069797;28;20484;-71
2022/11/22 08:24:20;;;;;;;22.07;13.90;;;5.70;99.90;;;;;;5069849;28;21113;-72
2022/11/22 08:26:47;;;;;;;21.33;12.83;;;5.70;99.90;;;;;;5069967;28;20535;-71
2022/11/22 08:29:14;;;;;;;30.67;15.00;;;5.70;99.90;;;;;;5070436;28;20467;-71
2022/11/22 08:31:41;;;;;;;34.90;14.60;;;5.70;99.90;;;;;;5070090;28;20444;-70
2022/11/22 08:34:07;;;;;;;63.80;17.17;;;5.70;99.90;;;;;;5070196;28;20476;-71
2022/11/22 08:36:36;;;;;;;59.80;16.50;;;5.60;99.90;;;;;;5070066;28;20453;-72
2022/11/22 08:39:02;;;;;;;33.30;15.30;;;5.60;99.90;;;;;;5069520;28;20798;-72
2022/11/22 08:41:29;;;;;;;28.97;14.40;;;5.60;99.90;;;;;;5069947;28;20449;-72
2022/11/22 08:43:56;;;;;;;29.03;14.13;;;5.60;99.90;;;;;;5069196;28;20475;-72
2022/11/22 08:46:23;;;;;;;30.50;13.10;;;5.60;99.90;;;;;;5068501;28;21128;-71
2022/11/22 08:48:52;;;;;;;26.43;12.60;;;5.50;99.90;;;;;;5070212;28;20796;-71
2022/11/22 08:51:18;;;;;;;19.73;10.53;;;5.50;99.90;;;;;;5068658;28;20450;-72
2022/11/22 08:53:46;;;;;;;18.53;9.43;;;5.50;99.90;;;;;;5069361;28;20460;-72
2022/11/22 08:56:15;;;;;;;19.30;8.27;;;5.50;99.90;;;;;;5069443;28;20497;-71
2022/11/22 08:58:42;;;;;;;23.87;8.07;;;5.50;99.90;;;;;;5068892;28;20456;-72
2022/11/22 09:01:11;;;;;;;10.83;6.47;;;5.50;99.90;;;;;;5068592;28;20540;-71
2022/11/22 09:03:38;;;;;;;13.47;6.80;;;5.60;99.90;;;;;;5068033;28;20624;-71
2022/11/22 09:06:07;;;;;;;13.33;6.03;;;5.60;99.90;;;;;;5068065;28;20459;-71
2022/11/22 09:08:36;;;;;;;14.03;5.83;;;5.60;99.90;;;;;;5068047;28;20444;-71
2022/11/22 09:11:06;;;;;;;14.00;6.80;;;5.60;99.90;;;;;;5067740;28;20445;-71
2022/11/22 09:13:33;;;;;;;26.10;7.73;;;5.70;99.90;;;;;;5068277;28;20469;-72
2022/11/22 09:16:01;;;;;;;18.17;7.37;;;5.70;99.90;;;;;;5068688;28;20504;-71
2022/11/22 09:18:28;;;;;;;31.60;7.23;;;5.80;99.90;;;;;;5069061;28;20528;-71
2022/11/22 09:20:58;;;;;;;17.33;6.80;;;5.90;99.90;;;;;;5067582;28;20884;-71
2022/11/22 09:23:24;;;;;;;14.70;5.93;;;6.00;99.90;;;;;;5068826;28;20485;-71
2022/11/22 09:25:57;;;;;;;13.60;5.00;;;6.10;99.90;;;;;;5069317;28;20509;-71
2022/11/22 09:28:26;;;;;;;13.70;5.73;;;6.20;99.90;;;;;;5068756;28;20484;-71
2022/11/22 09:30:59;;;;;;;11.00;5.60;;;6.20;99.90;;;;;;5068358;28;20454;-71
2022/11/22 09:33:25;;;;;;;12.33;4.90;;;6.30;99.90;;;;;;5068476;28;20507;-71
2022/11/22 09:35:58;;;;;;;7.27;4.40;;;6.30;99.90;;;;;;5068362;28;20952;-71
2022/11/22 09:38:24;;;;;;;15.53;3.80;;;6.50;99.90;;;;;;5068595;28;20452;-71
2022/11/22 09:40:51;;;;;;;13.27;3.50;;;6.70;99.90;;;;;;5068730;28;20453;-71
2022/11/22 09:43:26;;;;;;;14.53;3.93;;;6.80;99.90;;;;;;5067640;28;20528;-71
2022/11/22 09:46:26;;;;;;;10.43;2.97;;;6.90;99.90;;;;;;5068191;28;20518;-70
2022/11/22 09:49:14;;;;;;;10.40;3.30;;;7.10;99.90;;;;;;5063860;28;20865;-70
2022/11/22 09:51:46;;;;;;;9.63;3.13;;;7.30;99.90;;;;;;5067765;28;20857;-70
2022/11/22 09:54:18;;;;;;;11.07;3.00;;;7.40;99.90;;;;;;5067411;28;21022;-70
2022/11/22 09:56:45;;;;;;;8.93;3.60;;;7.60;99.90;;;;;;5067000;28;20458;-70
2022/11/22 09:59:17;;;;;;;11.33;2.90;;;7.60;99.90;;;;;;5066705;28;20459;-69
2022/11/22 10:01:53;;;;;;;16.97;3.63;;;7.60;99.90;;;;;;5066733;28;20463;-70
2022/11/22 10:04:22;;;;;;;11.20;4.43;;;7.70;99.90;;;;;;5066510;28;20470;-70
2022/11/22 10:06:54;;;;;;;10.00;3.10;;;7.60;99.90;;;;;;5066366;28;20492;-69
2022/11/22 10:09:35;;;;;;;9.73;2.73;;;7.60;99.90;;;;;;5062511;28;20473;-69
2022/11/22 10:12:06;;;;;;;7.03;2.80;;;7.40;99.90;;;;;;5064793;28;21769;-69
2022/11/22 10:14:42;;;;;;;16.20;3.57;;;7.20;99.90;;;;;;5068212;28;20473;-69
2022/11/22 10:17:25;;;;;;;22.53;4.20;;;7.10;99.90;;;;;;5069000;28;20441;-70
2022/11/22 10:19:58;;;;;;;10.33;3.27;;;7.00;99.90;;;;;;5068249;28;20455;-69
2022/11/22 10:22:28;;;;;;;15.20;3.47;;;7.00;99.90;;;;;;5067516;28;20489;-67
2022/11/22 10:24:55;;;;;;;11.60;2.90;;;7.00;99.90;;;;;;5066325;28;20480;-67
2022/11/22 10:27:21;;;;;;;9.10;3.23;;;7.00;99.90;;;;;;5067094;28;20452;-67
2022/11/22 10:29:52;;;;;;;10.17;3.13;;;6.90;99.90;;;;;;5067087;28;20859;-67
2022/11/22 10:32:27;;;;;;;10.03;3.17;;;6.90;99.90;;;;;;5066618;28;20498;-67
2022/11/22 10:35:10;;;;;;;10.97;3.13;;;6.90;99.90;;;;;;5064854;28;20487;-67
2022/11/22 10:37:49;;;;;;;13.00;4.07;;;6.90;99.90;;;;;;5066969;28;20974;-67
2022/11/22 10:40:21;;;;;;;17.70;3.67;;;6.90;99.90;;;;;;5067181;28;20497;-67
2022/11/22 10:43:12;;;;;;;11.00;3.20;;;6.90;99.90;;;;;;5066292;28;20484;-67
2022/11/22 10:45:43;;;;;;;20.07;4.30;;;6.90;99.90;;;;;;5066856;28;20444;-67
2022/11/22 10:48:23;;;;;;;10.13;3.30;;;6.90;99.90;;;;;;5066106;28;21167;-67
2022/11/22 10:51:02;;;;;;;9.90;3.27;;;6.80;99.90;;;;;;5066205;28;20518;-67
2022/11/22 10:53:41;;;;;;;12.80;4.00;;;6.80;99.90;;;;;;5065257;28;20586;-67
2022/11/22 10:56:16;;;;;;;17.27;4.00;;;6.80;99.90;;;;;;5066660;28;20455;-67
2022/11/22 10:58:58;;;;;;;21.57;4.30;;;6.80;99.90;;;;;;5067320;28;20882;-67
2022/11/22 11:01:33;;;;;;;8.50;3.50;;;6.80;99.90;;;;;;5066418;28;21007;-67
2022/11/22 11:04:03;;;;;;;7.00;3.30;;;6.80;99.90;;;;;;5065368;28;20487;-66
2022/11/22 11:06:34;;;;;;;10.73;3.17;;;6.80;99.90;;;;;;5066249;28;20460;-66
2022/11/22 11:09:05;;;;;;;21.23;3.87;;;6.80;99.90;;;;;;5066276;28;20511;-66
2022/11/22 11:11:34;;;;;;;7.07;2.63;;;6.70;99.90;;;;;;5066572;28;20459;-67
2022/11/22 11:14:08;;;;;;;8.13;2.90;;;6.70;99.90;;;;;;5065153;28;20466;-67
2022/11/22 11:16:36;;;;;;;9.67;2.87;;;6.70;99.90;;;;;;5065652;28;20468;-66
2022/11/22 11:19:16;;;;;;;14.47;3.00;;;6.70;99.90;;;;;;5065616;28;20943;-66
2022/11/22 11:21:43;;;;;;;12.80;3.97;;;6.80;99.90;;;;;;5066882;28;20838;-66
2022/11/22 11:24:13;;;;;;;6.77;2.53;;;6.80;99.90;;;;;;5066105;28;20533;-66
2022/11/22 11:26:42;;;;;;;8.67;3.30;;;6.80;99.90;;;;;;5065345;28;20536;-66
2022/11/22 11:29:34;;;;;;;9.07;3.30;;;6.80;99.90;;;;;;5066003;28;20453;-66
2022/11/22 11:32:09;;;;;;;9.03;2.50;;;6.90;99.90;;;;;;5064280;28;20959;-66
2022/11/22 11:34:40;;;;;;;14.67;3.40;;;6.80;99.90;;;;;;5064826;28;20482;-66
2022/11/22 11:37:18;;;;;;;9.20;3.00;;;6.80;99.90;;;;;;5064928;28;20448;-66
2022/11/22 11:39:46;;;;;;;11.60;2.67;;;6.90;99.90;;;;;;5064261;28;20444;-66
2022/11/22 11:42:23;;;;;;;9.37;2.73;;;6.90;99.90;;;;;;5064838;28;20533;-67
2022/11/22 11:44:50;;;;;;;11.00;2.90;;;6.90;99.90;;;;;;5066932;28;21213;-67
2022/11/22 11:47:19;;;;;;;10.40;3.20;;;6.90;99.90;;;;;;5070220;28;20446;-67
2022/11/22 11:49:52;;;;;;;13.47;3.30;;;7.00;99.90;;;;;;5070266;28;20440;-66
2022/11/22 11:52:21;;;;;;;9.43;2.93;;;7.00;99.90;;;;;;5070251;28;20463;-66
2022/11/22 11:54:52;;;;;;;13.80;2.57;;;7.10;99.90;;;;;;5069886;28;20464;-67
2022/11/22 11:57:21;;;;;;;19.27;2.93;;;7.10;99.90;;;;;;5070283;28;20458;-66
2022/11/22 11:59:50;;;;;;;17.70;3.50;;;7.10;99.90;;;;;;5070028;28;20951;-66
2022/11/22 12:02:20;;;;;;;8.10;2.80;;;7.10;99.90;;;;;;5070398;28;20440;-67
2022/11/22 12:04:50;;;;;;;17.50;3.73;;;7.00;99.90;;;;;;5070088;28;20484;-67
2022/11/22 12:07:20;;;;;;;12.40;2.87;;;7.00;99.90;;;;;;5070715;28;20825;-79
2022/11/22 12:09:49;;;;;;;7.73;2.93;;;7.00;99.90;;;;;;5070129;28;20444;-80
2022/11/22 12:12:31;;;;;;;20.03;3.60;;;6.90;99.90;;;;;;5070470;28;20455;-82
2022/11/22 12:15:04;;;;;;;10.87;2.90;;;6.80;99.90;;;;;;5070160;28;20430;-66
2022/11/22 12:17:38;;;;;;;12.83;3.47;;;6.80;99.90;;;;;;5070390;28;20556;-66
2022/11/22 12:20:09;;;;;;;16.83;2.93;;;6.80;99.90;;;;;;5069748;28;20924;-66
2022/11/22 12:22:46;;;;;;;16.50;3.47;;;6.80;99.90;;;;;;5070181;28;20444;-67
2022/11/22 12:25:21;;;;;;;15.67;3.30;;;6.80;99.90;;;;;;5070516;28;20822;-66
2022/11/22 12:27:48;;;;;;;11.47;3.20;;;6.80;99.90;;;;;;5070134;28;20458;-66
2022/11/22 12:30:23;;;;;;;9.33;3.67;;;6.90;99.90;;;;;;5069653;28;20445;-66
2022/11/22 12:32:59;;;;;;;7.87;2.40;;;6.90;99.90;;;;;;5070163;28;20839;-67
2022/11/22 12:35:27;;;;;;;8.67;2.80;;;6.90;99.90;;;;;;5070477;28;20453;-66
2022/11/22 12:37:58;;;;;;;12.90;2.73;;;7.00;99.90;;;;;;5069941;28;20449;-66
2022/11/22 12:40:27;;;;;;;14.40;3.50;;;7.10;99.90;;;;;;5070119;28;20440;-66
2022/11/22 12:42:57;;;;;;;15.30;4.60;;;7.10;99.90;;;;;;5069035;28;20447;-66
2022/11/22 12:45:27;;;;;;;12.10;3.00;;;7.20;99.90;;;;;;5070113;28;20446;-66
2022/11/22 12:47:57;;;;;;;10.20;2.87;;;7.20;99.90;;;;;;5070023;28;20444;-67
2022/11/22 12:50:29;;;;;;;8.80;2.57;;;7.20;99.90;;;;;;5070288;28;20449;-67
2022/11/22 12:53:02;;;;;;;6.73;2.63;;;7.20;99.90;;;;;;5069543;28;20862;-67
2022/11/22 12:55:34;;;;;;;13.63;3.00;;;7.30;99.90;;;;;;5068852;28;20455;-66
2022/11/22 12:58:09;;;;;;;19.30;2.97;;;7.20;99.90;;;;;;5069942;28;20441;-66
2022/11/22 13:00:41;;;;;;;10.70;2.80;;;7.20;99.90;;;;;;5069762;28;20956;-67
2022/11/22 13:03:12;;;;;;;6.83;2.50;;;7.20;99.90;;;;;;5069040;28;20478;-66
2022/11/22 13:05:44;;;;;;;6.00;3.00;;;7.20;99.90;;;;;;5068977;28;20443;-66